createdAt,value
2023-09-18T00:00:26.593Z,98144.96
2023-09-18T00:03:18.993Z,98139.42
2023-09-18T00:05:50.953Z,98136.16
2023-09-18T00:08:22.843Z,98127.71
2023-09-18T00:10:56.673Z,98125.00
2023-09-18T00:13:28.259Z,98124.04
2023-09-18T00:16:01.084Z,98121.29
2023-09-18T00:18:33.812Z,98115.23
2023-09-18T00:21:07.916Z,98108.14
2023-09-18T00:23:39.569Z,98101.02
2023-09-18T00:26:11.049Z,98098.63
2023-09-18T00:28:42.990Z,98094.89
2023-09-18T00:31:14.590Z,98092.35
2023-09-18T00:33:46.168Z,98088.07
2023-09-18T00:36:17.656Z,98082.91
2023-09-18T00:38:49.332Z,98078.61
2023-09-18T00:41:20.983Z,98078.48
2023-09-18T00:43:52.395Z,98076.11
2023-09-18T00:46:24.298Z,98075.11
2023-09-18T00:48:56.925Z,98073.59
2023-09-18T00:51:28.776Z,98070.83
2023-09-18T00:54:00.594Z,98067.22
2023-09-18T00:56:32.276Z,98067.30
2023-09-18T00:59:05.185Z,98062.65
2023-09-18T01:01:37.403Z,98060.06
2023-09-18T01:04:10.761Z,98057.13
2023-09-18T01:06:42.507Z,98055.38
2023-09-18T01:09:16.320Z,98049.33
2023-09-18T01:11:57.082Z,98048.11
2023-09-18T01:14:35.066Z,98036.17
2023-09-18T01:17:12.378Z,98038.64
2023-09-18T01:19:47.712Z,98036.05
2023-09-18T01:22:20.770Z,98036.42
2023-09-18T01:24:52.478Z,98033.30
2023-09-18T01:27:24.139Z,98024.66
2023-09-18T01:29:55.692Z,98020.49
2023-09-18T01:32:30.753Z,98020.45
2023-09-18T01:35:06.718Z,98022.03
2023-09-18T01:37:39.389Z,98021.86
2023-09-18T01:40:13.399Z,98015.63
2023-09-18T01:42:45.476Z,98009.73
2023-09-18T01:45:16.911Z,98014.59
2023-09-18T01:47:49.114Z,98012.70
2023-09-18T01:50:20.690Z,98011.50
2023-09-18T01:52:52.215Z,98012.41
2023-09-18T01:55:24.094Z,98011.21
2023-09-18T01:57:55.572Z,98006.56
2023-09-18T02:00:27.328Z,98003.84
2023-09-18T02:03:13.700Z,98006.45
2023-09-18T02:05:51.477Z,98009.95
2023-09-18T02:08:23.427Z,98017.60
2023-09-18T02:10:54.948Z,98021.96
2023-09-18T02:13:26.566Z,98023.87
2023-09-18T02:15:58.376Z,98020.05
2023-09-18T02:18:30.109Z,98014.86
2023-09-18T02:21:01.588Z,98008.80
2023-09-18T02:23:33.297Z,98000.13
2023-09-18T02:26:04.818Z,97997.86
2023-09-18T02:28:36.389Z,98002.56
2023-09-18T02:31:09.257Z,98005.02
2023-09-18T02:33:40.977Z,97999.86
2023-09-18T02:36:12.559Z,97993.98
2023-09-18T02:38:44.122Z,97987.20
2023-09-18T02:41:15.619Z,97983.21
2023-09-18T02:43:47.442Z,97975.05
2023-09-18T02:46:19.307Z,97972.46
2023-09-18T02:48:51.255Z,97968.98
2023-09-18T02:51:23.102Z,97965.17
2023-09-18T02:53:54.510Z,97964.33
2023-09-18T02:56:25.992Z,97960.01
2023-09-18T02:58:57.600Z,97956.02
2023-09-18T03:01:29.026Z,97947.89
2023-09-18T03:04:00.661Z,97944.08
2023-09-18T03:06:32.228Z,97935.08
2023-09-18T03:09:03.778Z,97928.68
2023-09-18T03:11:35.395Z,97925.05
2023-09-18T03:14:07.259Z,97916.58
2023-09-18T03:16:38.743Z,97911.55
2023-09-18T03:19:10.288Z,97912.59
2023-09-18T03:21:41.854Z,97912.23
2023-09-18T03:24:13.749Z,97915.72
2023-09-18T03:26:45.486Z,97912.61
2023-09-18T03:29:16.985Z,97907.04
2023-09-18T03:31:48.525Z,97891.77
2023-09-18T03:34:19.958Z,97882.05
2023-09-18T03:36:51.438Z,97892.28
2023-09-18T03:39:23.034Z,97898.04
2023-09-18T03:41:54.495Z,97895.67
2023-09-18T03:44:26.030Z,97890.81
2023-09-18T03:46:57.789Z,97890.64
2023-09-18T03:49:30.171Z,97891.34
2023-09-18T03:52:01.648Z,97886.86
2023-09-18T03:54:33.154Z,97886.17
2023-09-18T03:57:05.036Z,97880.63
2023-09-18T03:59:36.476Z,97879.95
2023-09-18T04:02:08.210Z,97895.97
2023-09-18T04:04:39.858Z,97925.98
2023-09-18T04:07:12.623Z,97926.52
2023-09-18T04:09:44.384Z,97923.40
2023-09-18T04:12:16.738Z,97913.36
2023-09-18T04:14:48.390Z,97909.70
2023-09-18T04:17:19.905Z,97903.27
2023-09-18T04:19:51.546Z,97897.89
2023-09-18T04:22:23.011Z,97895.61
2023-09-18T04:24:54.539Z,97880.84
2023-09-18T04:27:26.094Z,97873.17
2023-09-18T04:29:57.580Z,97868.62
2023-09-18T04:32:30.618Z,97867.02
2023-09-18T04:35:02.275Z,97865.23
2023-09-18T04:37:33.844Z,97864.15
2023-09-18T04:40:06.397Z,97866.86
2023-09-18T04:42:38.475Z,97857.29
2023-09-18T04:45:11.718Z,97856.38
2023-09-18T04:47:43.248Z,97847.30
2023-09-18T04:50:17.070Z,97850.20
2023-09-18T04:52:53.156Z,97839.55
2023-09-18T04:55:24.657Z,97828.59
2023-09-18T04:57:56.198Z,97825.44
2023-09-18T05:00:27.996Z,97824.34
2023-09-18T05:03:01.853Z,97814.77
2023-09-18T05:05:33.735Z,97818.58
2023-09-18T05:08:08.571Z,97818.35
2023-09-18T05:10:40.655Z,97810.48
2023-09-18T05:13:12.945Z,97802.63
2023-09-18T05:15:44.715Z,97788.88
2023-09-18T05:18:16.235Z,97780.52
2023-09-18T05:20:47.884Z,97789.16
2023-09-18T05:23:20.210Z,97788.10
2023-09-18T05:25:52.261Z,97782.86
2023-09-18T05:28:24.043Z,97792.73
2023-09-18T05:30:56.250Z,97799.28
2023-09-18T05:33:28.157Z,97797.33
2023-09-18T05:35:59.786Z,97796.41
2023-09-18T05:38:31.799Z,97793.91
2023-09-18T05:41:03.438Z,97789.85
2023-09-18T05:43:36.443Z,97788.60
2023-09-18T05:46:12.920Z,97795.33
2023-09-18T05:48:45.190Z,97794.21
2023-09-18T05:51:16.796Z,97785.46
2023-09-18T05:53:48.279Z,97773.87
2023-09-18T05:56:19.739Z,97767.15
2023-09-18T05:58:51.419Z,97769.15
2023-09-18T06:01:23.085Z,97767.66
2023-09-18T06:03:54.735Z,97773.95
2023-09-18T06:06:27.135Z,97766.70
2023-09-18T06:08:58.604Z,97774.56
2023-09-18T06:11:30.117Z,97770.28
2023-09-18T06:14:01.719Z,97762.02
2023-09-18T06:16:33.925Z,97753.38
2023-09-18T06:19:05.511Z,97756.21
2023-09-18T06:21:37.007Z,97741.89
2023-09-18T06:24:09.741Z,97729.45
2023-09-18T06:26:41.599Z,97725.39
2023-09-18T06:29:16.632Z,97715.57
2023-09-18T06:31:48.146Z,97708.02
2023-09-18T06:34:21.368Z,97717.66
2023-09-18T06:36:53.114Z,97727.16
2023-09-18T06:39:25.137Z,97741.34
2023-09-18T06:41:56.729Z,97744.55
2023-09-18T06:44:28.237Z,97743.95
2023-09-18T06:46:59.713Z,97747.67
2023-09-18T06:49:32.050Z,97753.85
2023-09-18T06:52:06.492Z,97759.48
2023-09-18T06:54:38.780Z,97770.33
2023-09-18T06:57:10.238Z,97773.52
2023-09-18T06:59:41.739Z,97773.19
2023-09-18T07:02:15.895Z,97780.73
2023-09-18T07:04:47.743Z,97787.04
2023-09-18T07:07:26.046Z,97792.14
2023-09-18T07:12:32.551Z,97788.06
2023-09-18T07:15:06.410Z,97798.05
2023-09-18T07:17:38.108Z,97799.67
2023-09-18T07:20:15.646Z,97794.98
2023-09-18T07:22:49.356Z,97793.80
2023-09-18T07:25:20.923Z,97796.30
2023-09-18T07:27:52.339Z,97798.27
2023-09-18T07:30:28.033Z,97802.67
2023-09-18T07:32:59.626Z,97804.84
2023-09-18T07:35:31.778Z,97799.20
2023-09-18T07:38:03.395Z,97796.70
2023-09-18T07:40:34.971Z,97800.45
2023-09-18T07:43:06.751Z,97796.73
2023-09-18T07:45:40.112Z,97789.55
2023-09-18T07:48:12.110Z,97782.50
2023-09-18T07:50:46.856Z,97781.57
2023-09-18T07:53:18.751Z,97774.16
2023-09-18T07:55:57.460Z,97760.80
2023-09-18T07:58:29.634Z,97755.10
2023-09-18T08:01:01.485Z,97754.45
2023-09-18T08:03:33.590Z,97766.19
2023-09-18T08:06:06.528Z,97758.59
2023-09-18T08:08:38.244Z,97760.57
2023-09-18T08:11:12.408Z,97774.39
2023-09-18T08:13:44.123Z,97778.09
2023-09-18T08:16:16.072Z,97788.27
2023-09-18T08:18:49.105Z,97794.73
2023-09-18T08:21:21.209Z,97791.29
2023-09-18T08:23:53.051Z,97790.59
2023-09-18T08:26:24.564Z,97797.88
2023-09-18T08:28:56.157Z,97802.20
2023-09-18T08:31:28.845Z,97812.64
2023-09-18T08:34:00.347Z,97817.16
2023-09-18T08:36:32.982Z,97827.30
2023-09-18T08:39:06.928Z,97829.57
2023-09-18T08:41:45.459Z,97833.05
2023-09-18T08:44:17.685Z,97835.67
2023-09-18T08:46:49.854Z,97838.63
2023-09-18T08:49:22.735Z,97835.13
2023-09-18T08:51:56.198Z,97829.71
2023-09-18T08:54:29.705Z,97837.04
2023-09-18T08:57:01.570Z,97842.86
2023-09-18T08:59:34.361Z,97839.83
2023-09-18T09:02:06.224Z,97835.77
2023-09-18T09:04:37.756Z,97836.80
2023-09-18T09:07:10.541Z,97830.44
2023-09-18T09:09:42.908Z,97832.23
2023-09-18T09:12:14.379Z,97834.48
2023-09-18T09:15:06.379Z,97833.98
2023-09-18T09:17:38.273Z,97830.14
2023-09-18T09:20:14.753Z,97829.08
2023-09-18T09:22:46.764Z,97829.80
2023-09-18T09:25:29.590Z,97825.57
2023-09-18T09:28:02.334Z,97833.42
2023-09-18T09:30:36.959Z,97830.96
2023-09-18T09:33:10.080Z,97824.50
2023-09-18T09:35:42.868Z,97817.14
2023-09-18T09:38:17.322Z,97814.05
2023-09-18T09:40:49.314Z,97821.29
2023-09-18T09:43:21.510Z,97812.15
2023-09-18T09:45:58.936Z,97810.09
2023-09-18T09:48:32.588Z,97803.80
2023-09-18T09:51:04.648Z,97796.33
2023-09-18T09:53:51.036Z,97795.02
2023-09-18T09:56:23.633Z,97788.30
2023-09-18T09:59:09.394Z,97788.98
2023-09-18T10:01:42.318Z,97796.91
2023-09-18T10:04:18.325Z,97791.23
2023-09-18T10:06:58.347Z,97793.86
2023-09-18T10:09:30.815Z,97793.83
2023-09-18T10:12:03.433Z,97799.51
2023-09-18T10:14:55.271Z,97797.30
2023-09-18T10:17:32.181Z,97793.38
2023-09-18T10:20:17.331Z,97788.26
2023-09-18T10:22:51.412Z,97796.23
2023-09-18T10:25:25.584Z,97805.63
2023-09-18T10:27:59.800Z,97807.48
2023-09-18T10:30:35.420Z,97813.84
2023-09-18T10:33:08.780Z,97816.83
2023-09-18T10:35:42.538Z,97819.34
2023-09-18T10:38:14.498Z,97820.60
2023-09-18T10:40:48.751Z,97823.20
2023-09-18T10:43:20.905Z,97823.89
2023-09-18T10:45:53.352Z,97825.45
2023-09-18T10:48:26.045Z,97824.75
2023-09-18T10:50:59.857Z,97833.34
2023-09-18T10:53:31.507Z,97832.80
2023-09-18T10:56:06.176Z,97832.97
2023-09-18T10:58:40.038Z,97832.54
2023-09-18T11:01:14.921Z,97837.92
2023-09-18T11:03:47.692Z,97833.00
2023-09-18T11:06:22.490Z,97843.11
2023-09-18T11:08:54.827Z,97844.48
2023-09-18T11:11:28.374Z,97846.39
2023-09-18T11:14:00.997Z,97856.31
2023-09-18T11:16:41.089Z,97853.55
2023-09-18T11:19:16.314Z,97853.24
2023-09-18T11:21:48.234Z,97856.44
2023-09-18T11:24:22.825Z,97861.02
2023-09-18T11:26:55.247Z,97858.55
2023-09-18T11:29:29.880Z,97851.58
2023-09-18T11:32:05.755Z,97843.41
2023-09-18T11:34:37.248Z,97845.52
2023-09-18T11:37:23.232Z,97847.48
2023-09-18T11:39:54.777Z,97850.58
2023-09-18T11:42:30.069Z,97864.52
2023-09-18T11:45:02.651Z,97867.39
2023-09-18T11:47:43.584Z,97864.39
2023-09-18T11:50:18.206Z,97859.79
2023-09-18T11:52:49.953Z,97854.61
2023-09-18T11:55:21.898Z,97864.80
2023-09-18T11:57:57.702Z,97864.73
2023-09-18T12:00:31.193Z,97861.48
2023-09-18T12:03:18.946Z,97866.46
2023-09-18T12:05:52.923Z,97856.38
2023-09-18T12:08:27.438Z,97858.15
2023-09-18T12:10:59.266Z,97863.64
2023-09-18T12:13:31.987Z,97866.79
2023-09-18T12:16:07.008Z,97861.77
2023-09-18T12:18:39.437Z,97855.91
2023-09-18T12:21:12.039Z,97868.54
2023-09-18T12:23:44.782Z,97865.16
2023-09-18T12:26:19.163Z,97866.88
2023-09-18T12:28:51.519Z,97866.07
2023-09-18T12:31:23.597Z,97865.05
2023-09-18T12:33:55.366Z,97871.70
2023-09-18T12:36:27.388Z,97871.67
2023-09-18T12:39:03.865Z,97869.06
2023-09-18T12:41:35.974Z,97859.45
2023-09-18T12:44:09.373Z,97852.76
2023-09-18T12:46:43.152Z,97854.53
2023-09-18T12:49:26.408Z,97852.95
2023-09-18T12:52:02.095Z,97853.02
2023-09-18T12:54:45.817Z,97869.28
2023-09-18T12:57:19.363Z,97869.35
2023-09-18T12:59:52.539Z,97859.13
2023-09-18T13:02:29.953Z,97843.50
2023-09-18T13:05:02.206Z,97845.15
2023-09-18T13:07:45.316Z,97854.08
2023-09-18T13:10:17.230Z,97865.25
2023-09-18T13:12:54.765Z,97870.36
2023-09-18T13:15:31.283Z,97876.88
2023-09-18T13:18:11.590Z,97875.23
2023-09-18T13:20:43.734Z,97867.54
2023-09-18T13:23:21.983Z,97869.15
2023-09-18T13:26:00.805Z,97870.88
2023-09-18T13:28:35.647Z,97865.27
2023-09-18T13:31:08.846Z,97876.40
2023-09-18T13:33:46.299Z,97874.89
2023-09-18T13:36:18.192Z,97879.18
2023-09-18T13:38:49.763Z,97878.35
2023-09-18T13:41:21.367Z,97877.83
2023-09-18T13:43:56.837Z,97879.65
2023-09-18T13:46:28.711Z,97880.05
2023-09-18T13:49:00.729Z,97881.15
2023-09-18T13:51:32.423Z,97886.85
2023-09-18T13:54:05.093Z,97887.28
2023-09-18T13:56:37.275Z,97879.46
2023-09-18T13:59:11.311Z,97869.89
2023-09-18T14:01:42.958Z,97862.98
2023-09-18T14:04:14.669Z,97855.81
2023-09-18T14:06:46.340Z,97855.83
2023-09-18T14:09:18.104Z,97857.33
2023-09-18T14:11:49.875Z,97855.39
2023-09-18T14:14:22.214Z,97846.40
2023-09-18T14:16:57.789Z,97835.99
2023-09-18T14:19:29.898Z,97829.77
2023-09-18T14:22:04.861Z,97825.14
2023-09-18T14:24:37.253Z,97837.31
2023-09-18T14:27:09.658Z,97840.83
2023-09-18T14:29:41.532Z,97840.98
2023-09-18T14:32:13.268Z,97839.27
2023-09-18T14:34:44.933Z,97844.73
2023-09-18T14:37:16.510Z,97841.59
2023-09-18T14:39:48.043Z,97833.64
2023-09-18T14:42:19.572Z,97829.31
2023-09-18T14:44:51.424Z,97827.67
2023-09-18T14:47:24.795Z,97825.56
2023-09-18T14:49:57.062Z,97830.19
2023-09-18T14:52:28.902Z,97829.67
2023-09-18T14:55:01.458Z,97831.79
2023-09-18T14:57:32.968Z,97833.12
2023-09-18T15:00:07.371Z,97823.13
2023-09-18T15:02:39.153Z,97823.69
2023-09-18T15:05:13.617Z,97826.04
2023-09-18T15:07:45.278Z,97827.29
2023-09-18T15:10:17.372Z,97821.76
2023-09-18T15:12:49.144Z,97818.34
2023-09-18T15:15:22.148Z,97814.92
2023-09-18T15:17:54.197Z,97815.95
2023-09-18T15:20:27.287Z,97813.77
2023-09-18T15:22:58.995Z,97799.88
2023-09-18T15:25:30.548Z,97801.77
2023-09-18T15:28:01.975Z,97800.55
2023-09-18T15:30:33.522Z,97798.45
2023-09-18T15:33:06.637Z,97792.98
2023-09-18T15:35:38.658Z,97788.23
2023-09-18T15:38:10.418Z,97788.46
2023-09-18T15:40:41.909Z,97782.95
2023-09-18T15:43:13.571Z,97777.95
2023-09-18T15:45:45.139Z,97769.63
2023-09-18T15:48:18.960Z,97768.07
2023-09-18T15:50:51.113Z,97774.34
2023-09-18T15:53:23.129Z,97776.20
2023-09-18T15:55:55.082Z,97772.25
2023-09-18T15:58:27.027Z,97765.23
2023-09-18T16:00:59.287Z,97759.34
2023-09-18T16:03:31.629Z,97756.08
2023-09-18T16:06:05.487Z,97756.52
2023-09-18T16:08:38.298Z,97762.27
2023-09-18T16:11:10.088Z,97759.08
2023-09-18T16:13:41.635Z,97757.45
2023-09-18T16:16:13.268Z,97758.46
2023-09-18T16:18:45.044Z,97764.27
2023-09-18T16:21:16.550Z,97756.80
2023-09-18T16:23:47.988Z,97758.98
2023-09-18T16:26:19.850Z,97760.90
2023-09-18T16:28:51.352Z,97763.77
2023-09-18T16:31:22.836Z,97767.38
2023-09-18T16:33:54.836Z,97760.77
2023-09-18T16:36:27.299Z,97765.05
2023-09-18T16:38:58.893Z,97764.84
2023-09-18T16:41:31.054Z,97760.61
2023-09-18T16:44:04.202Z,97760.91
2023-09-18T16:46:36.906Z,97764.75
2023-09-18T16:49:10.952Z,97765.23
2023-09-18T16:51:42.940Z,97767.09
2023-09-18T16:54:17.212Z,97767.89
2023-09-18T16:56:49.808Z,97770.19
2023-09-18T16:59:24.555Z,97768.05
2023-09-18T17:01:56.197Z,97764.02
2023-09-18T17:04:27.765Z,97767.29
2023-09-18T17:06:59.821Z,97762.68
2023-09-18T17:09:31.317Z,97758.95
2023-09-18T17:12:03.224Z,97761.67
2023-09-18T17:14:34.787Z,97762.82
2023-09-18T17:17:06.452Z,97756.99
2023-09-18T17:19:37.991Z,97756.59
2023-09-18T17:22:09.378Z,97755.30
2023-09-18T17:24:42.317Z,97757.00
2023-09-18T17:27:13.767Z,97762.05
2023-09-18T17:29:45.628Z,97759.92
2023-09-18T17:32:17.534Z,97760.55
2023-09-18T17:34:48.978Z,97767.14
2023-09-18T17:37:20.648Z,97773.33
2023-09-18T17:39:52.131Z,97777.86
2023-09-18T17:42:23.564Z,97773.96
2023-09-18T17:44:55.299Z,97777.07
2023-09-18T17:47:26.828Z,97776.02
2023-09-18T17:49:58.253Z,97775.66
2023-09-18T17:52:29.761Z,97779.66
2023-09-18T17:55:05.969Z,97780.02
2023-09-18T17:57:39.710Z,97780.16
2023-09-18T18:00:16.689Z,97783.93
2023-09-18T18:02:48.826Z,97784.77
2023-09-18T18:05:26.388Z,97788.20
2023-09-18T18:08:00.374Z,97789.02
2023-09-18T18:10:32.433Z,97795.38
2023-09-18T18:13:04.170Z,97793.94
2023-09-18T18:15:39.377Z,97793.02
2023-09-18T18:18:13.910Z,97797.80
2023-09-18T18:20:47.489Z,97800.29
2023-09-18T18:23:19.049Z,97802.66
2023-09-18T18:25:54.158Z,97805.71
2023-09-18T18:28:28.185Z,97805.27
2023-09-18T18:30:59.990Z,97796.30
2023-09-18T18:33:32.013Z,97795.32
2023-09-18T18:36:04.650Z,97792.58
2023-09-18T18:38:36.993Z,97792.80
2023-09-18T18:41:09.028Z,97796.71
2023-09-18T18:43:41.412Z,97798.02
2023-09-18T18:46:13.595Z,97799.67
2023-09-18T18:48:45.619Z,97799.54
2023-09-18T18:51:19.430Z,97795.55
2023-09-18T18:53:52.179Z,97801.54
2023-09-18T18:56:23.699Z,97803.88
2023-09-18T18:58:55.164Z,97806.59
2023-09-18T19:01:28.061Z,97799.35
2023-09-18T19:04:00.449Z,97803.33
2023-09-18T19:06:32.504Z,97804.80
2023-09-18T19:09:05.602Z,97801.39
2023-09-18T19:11:37.444Z,97800.48
2023-09-18T19:14:09.665Z,97801.77
2023-09-18T19:16:41.455Z,97799.27
2023-09-18T19:19:12.923Z,97800.70
2023-09-18T19:21:44.313Z,97796.05
2023-09-18T19:24:16.268Z,97796.42
2023-09-18T19:26:47.718Z,97795.27
2023-09-18T19:29:19.808Z,97790.59
2023-09-18T19:31:51.270Z,97790.64
2023-09-18T19:34:22.760Z,97787.69
2023-09-18T19:37:08.104Z,97792.44
2023-09-18T19:39:40.318Z,97789.71
2023-09-18T19:42:11.825Z,97787.30
2023-09-18T19:44:45.851Z,97792.02
2023-09-18T19:47:18.606Z,97789.11
2023-09-18T19:49:50.376Z,97789.11
2023-09-18T19:52:23.099Z,97793.52
2023-09-18T19:54:55.065Z,97792.47
2023-09-18T19:57:26.954Z,97792.15
2023-09-18T20:00:00.159Z,97786.90
2023-09-18T20:02:32.273Z,97790.38
2023-09-18T20:05:04.888Z,97794.08
2023-09-18T20:07:36.464Z,97792.70
2023-09-18T20:10:12.174Z,97791.14
2023-09-18T20:12:44.151Z,97785.44
2023-09-18T20:15:18.117Z,97788.95
2023-09-18T20:17:52.805Z,97791.42
2023-09-18T20:20:27.470Z,97795.29
2023-09-18T20:22:59.735Z,97797.89
2023-09-18T20:25:32.294Z,97800.69
2023-09-18T20:28:05.172Z,97798.79
2023-09-18T20:30:37.848Z,97804.17
2023-09-18T20:33:10.108Z,97807.27
2023-09-18T20:35:42.613Z,97809.15
2023-09-18T20:38:15.144Z,97801.96
2023-09-18T20:40:47.747Z,97801.75
2023-09-18T20:43:25.476Z,97808.52
2023-09-18T20:45:59.116Z,97804.67
2023-09-18T20:48:31.799Z,97808.11
2023-09-18T20:51:04.237Z,97811.73
2023-09-18T20:53:36.107Z,97803.34
2023-09-18T20:56:07.954Z,97797.25
2023-09-18T20:58:40.132Z,97797.14
2023-09-18T21:01:12.305Z,97796.98
2023-09-18T21:03:44.133Z,97800.34
2023-09-18T21:06:16.154Z,97801.92
2023-09-18T21:08:48.162Z,97794.13
2023-09-18T21:11:21.616Z,97783.70
2023-09-18T21:13:54.923Z,97780.25
2023-09-18T21:16:26.677Z,97774.90
2023-09-18T21:18:58.375Z,97774.43
2023-09-18T21:21:30.083Z,97776.91
2023-09-18T21:24:01.818Z,97778.33
2023-09-18T21:26:33.719Z,97777.52
2023-09-18T21:29:06.376Z,97780.48
2023-09-18T21:31:39.216Z,97779.81
2023-09-18T21:34:11.643Z,97785.07
2023-09-18T21:36:43.256Z,97788.09
2023-09-18T21:39:14.767Z,97787.58
2023-09-18T21:41:46.952Z,97790.95
2023-09-18T21:44:18.412Z,97789.98
2023-09-18T21:46:50.095Z,97793.37
2023-09-18T21:49:21.493Z,97794.16
2023-09-18T21:51:53.539Z,97800.88
2023-09-18T21:54:25.145Z,97804.64
2023-09-18T21:56:56.740Z,97808.02
2023-09-18T21:59:28.305Z,97805.27
2023-09-18T22:01:59.778Z,97805.30
2023-09-18T22:04:31.316Z,97806.57
2023-09-18T22:07:02.775Z,97808.36
2023-09-18T22:09:34.213Z,97805.27
2023-09-18T22:12:07.706Z,97802.01
2023-09-18T22:14:39.228Z,97804.44
2023-09-18T22:17:10.697Z,97808.65
2023-09-18T22:19:43.759Z,97802.58
2023-09-18T22:22:15.967Z,97810.41
2023-09-18T22:24:49.209Z,97812.69
2023-09-18T22:27:20.883Z,97812.71
2023-09-18T22:29:52.812Z,97818.84
2023-09-18T22:32:25.249Z,97817.48
2023-09-18T22:34:57.024Z,97818.55
2023-09-18T22:37:28.583Z,97817.38
2023-09-18T22:40:07.950Z,97814.46
2023-09-18T22:43:15.949Z,97816.41
2023-09-18T22:46:23.151Z,97814.52
2023-09-18T22:49:29.925Z,97814.20
2023-09-18T22:52:37.120Z,97818.58
2023-09-18T22:55:09.431Z,97818.11
2023-09-18T22:57:43.101Z,97817.83
2023-09-18T23:00:19.112Z,97824.64
2023-09-18T23:02:51.160Z,97831.30
2023-09-18T23:05:25.267Z,97833.09
2023-09-18T23:08:00.990Z,97829.30
2023-09-18T23:10:32.703Z,97829.13
2023-09-18T23:13:05.250Z,97836.77
2023-09-18T23:15:38.326Z,97836.39
2023-09-18T23:18:10.675Z,97842.65
2023-09-18T23:20:42.303Z,97843.20
2023-09-18T23:23:14.133Z,97849.86
2023-09-18T23:25:46.555Z,97855.09
2023-09-18T23:28:18.113Z,97853.88
2023-09-18T23:30:50.055Z,97854.77
2023-09-18T23:33:22.575Z,97855.34
2023-09-18T23:35:54.610Z,97854.02
2023-09-18T23:38:27.868Z,97854.80
2023-09-18T23:41:02.824Z,97855.02
2023-09-18T23:43:37.477Z,97862.05
2023-09-18T23:46:12.029Z,97861.77
2023-09-18T23:48:45.835Z,97861.65
2023-09-18T23:51:17.467Z,97862.23
2023-09-18T23:53:49.311Z,97866.45
2023-09-18T23:56:23.720Z,97868.74
2023-09-18T23:58:56.352Z,97872.27
